sensor_id;sensor_type;location;lat;lon;timestamp;P1;durP1;ratioP1;P2;durP2;ratioP2
71456;SDS011;59263;48.160;11.752;2023-09-08T00:01:26;10.23;;;2.93;;
71456;SDS011;59263;48.160;11.752;2023-09-08T00:03:51;7.97;;;3.00;;
71456;SDS011;59263;48.160;11.752;2023-09-08T00:06:17;7.53;;;3.10;;
71456;SDS011;59263;48.160;11.752;2023-09-08T00:08:42;8.87;;;3.07;;
71456;SDS011;59263;48.160;11.752;2023-09-08T00:11:08;8.73;;;2.83;;
71456;SDS011;59263;48.160;11.752;2023-09-08T00:13:33;9.17;;;3.27;;
71456;SDS011;59263;48.160;11.752;2023-09-08T00:15:59;9.07;;;3.37;;
71456;SDS011;59263;48.160;11.752;2023-09-08T00:18:24;10.23;;;3.38;;
71456;SDS011;59263;48.160;11.752;2023-09-08T00:20:49;8.27;;;3.00;;
71456;SDS011;59263;48.160;11.752;2023-09-08T00:23:14;7.93;;;2.87;;
71456;SDS011;59263;48.160;11.752;2023-09-08T00:25:40;10.80;;;3.13;;
71456;SDS011;59263;48.160;11.752;2023-09-08T00:28:05;8.40;;;3.00;;
71456;SDS011;59263;48.160;11.752;2023-09-08T00:30:31;10.82;;;3.20;;
71456;SDS011;59263;48.160;11.752;2023-09-08T00:32:57;8.70;;;2.87;;
71456;SDS011;59263;48.160;11.752;2023-09-08T00:35:22;10.10;;;3.60;;
71456;SDS011;59263;48.160;11.752;2023-09-08T00:37:47;10.23;;;3.40;;
71456;SDS011;59263;48.160;11.752;2023-09-08T00:40:13;8.63;;;3.63;;
71456;SDS011;59263;48.160;11.752;2023-09-08T00:42:38;9.05;;;3.30;;
71456;SDS011;59263;48.160;11.752;2023-09-08T00:45:04;8.57;;;3.70;;
71456;SDS011;59263;48.160;11.752;2023-09-08T00:47:29;9.25;;;3.42;;
71456;SDS011;59263;48.160;11.752;2023-09-08T00:49:54;9.07;;;3.30;;
71456;SDS011;59263;48.160;11.752;2023-09-08T00:52:20;11.57;;;4.10;;
71456;SDS011;59263;48.160;11.752;2023-09-08T00:54:46;10.23;;;3.30;;
71456;SDS011;59263;48.160;11.752;2023-09-08T00:57:11;7.95;;;2.97;;
71456;SDS011;59263;48.160;11.752;2023-09-08T00:59:36;8.27;;;3.03;;
71456;SDS011;59263;48.160;11.752;2023-09-08T01:02:03;8.20;;;3.03;;
71456;SDS011;59263;48.160;11.752;2023-09-08T01:04:28;9.07;;;3.00;;
71456;SDS011;59263;48.160;11.752;2023-09-08T01:06:55;10.05;;;3.10;;
71456;SDS011;59263;48.160;11.752;2023-09-08T01:09:21;8.35;;;3.00;;
71456;SDS011;59263;48.160;11.752;2023-09-08T01:11:48;9.25;;;3.30;;
71456;SDS011;59263;48.160;11.752;2023-09-08T01:14:13;9.05;;;3.22;;
71456;SDS011;59263;48.160;11.752;2023-09-08T01:16:38;8.23;;;3.17;;
71456;SDS011;59263;48.160;11.752;2023-09-08T01:19:05;9.27;;;3.28;;
71456;SDS011;59263;48.160;11.752;2023-09-08T01:27:34;11.20;;;3.20;;
71456;SDS011;59263;48.160;11.752;2023-09-08T01:30:02;7.55;;;2.60;;
71456;SDS011;59263;48.160;11.752;2023-09-08T01:32:30;8.23;;;2.95;;
71456;SDS011;59263;48.160;11.752;2023-09-08T01:34:57;7.43;;;2.63;;
71456;SDS011;59263;48.160;11.752;2023-09-08T01:37:23;7.55;;;2.92;;
71456;SDS011;59263;48.160;11.752;2023-09-08T01:39:48;9.48;;;3.20;;
71456;SDS011;59263;48.160;11.752;2023-09-08T01:42:14;8.20;;;3.10;;
71456;SDS011;59263;48.160;11.752;2023-09-08T01:44:39;8.73;;;2.97;;
71456;SDS011;59263;48.160;11.752;2023-09-08T01:47:04;7.50;;;2.70;;
71456;SDS011;59263;48.160;11.752;2023-09-08T01:49:30;10.00;;;3.37;;
71456;SDS011;59263;48.160;11.752;2023-09-08T01:51:55;9.07;;;3.10;;
71456;SDS011;59263;48.160;11.752;2023-09-08T01:54:21;8.40;;;2.90;;
71456;SDS011;59263;48.160;11.752;2023-09-08T01:56:46;8.07;;;2.90;;
71456;SDS011;59263;48.160;11.752;2023-09-08T01:59:12;7.73;;;2.97;;
71456;SDS011;59263;48.160;11.752;2023-09-08T02:01:37;8.30;;;3.30;;
71456;SDS011;59263;48.160;11.752;2023-09-08T02:04:02;10.00;;;2.80;;
71456;SDS011;59263;48.160;11.752;2023-09-08T02:06:28;7.95;;;3.20;;
71456;SDS011;59263;48.160;11.752;2023-09-08T02:08:53;7.60;;;2.85;;
71456;SDS011;59263;48.160;11.752;2023-09-08T02:11:18;8.43;;;3.33;;
71456;SDS011;59263;48.160;11.752;2023-09-08T02:13:43;9.53;;;2.97;;
71456;SDS011;59263;48.160;11.752;2023-09-08T02:16:15;8.37;;;3.17;;
71456;SDS011;59263;48.160;11.752;2023-09-08T02:18:41;8.05;;;2.85;;
71456;SDS011;59263;48.160;11.752;2023-09-08T02:21:08;8.55;;;2.90;;
71456;SDS011;59263;48.160;11.752;2023-09-08T02:23:33;7.55;;;2.65;;
71456;SDS011;59263;48.160;11.752;2023-09-08T02:25:58;8.60;;;2.90;;
71456;SDS011;59263;48.160;11.752;2023-09-08T02:28:24;7.67;;;2.63;;
71456;SDS011;59263;48.160;11.752;2023-09-08T02:30:49;7.35;;;2.65;;
71456;SDS011;59263;48.160;11.752;2023-09-08T02:33:15;7.90;;;2.93;;
71456;SDS011;59263;48.160;11.752;2023-09-08T02:35:40;8.60;;;3.27;;
71456;SDS011;59263;48.160;11.752;2023-09-08T02:38:05;7.77;;;2.93;;
71456;SDS011;59263;48.160;11.752;2023-09-08T02:40:31;8.87;;;2.90;;
71456;SDS011;59263;48.160;11.752;2023-09-08T02:42:59;8.15;;;2.97;;
71456;SDS011;59263;48.160;11.752;2023-09-08T02:45:25;7.45;;;2.60;;
71456;SDS011;59263;48.160;11.752;2023-09-08T02:47:50;8.17;;;2.83;;
71456;SDS011;59263;48.160;11.752;2023-09-08T02:50:15;8.53;;;2.93;;
71456;SDS011;59263;48.160;11.752;2023-09-08T02:52:41;8.37;;;3.23;;
71456;SDS011;59263;48.160;11.752;2023-09-08T02:55:06;7.10;;;2.43;;
71456;SDS011;59263;48.160;11.752;2023-09-08T02:57:31;7.65;;;2.70;;
71456;SDS011;59263;48.160;11.752;2023-09-08T02:59:57;8.27;;;2.95;;
71456;SDS011;59263;48.160;11.752;2023-09-08T03:02:24;9.70;;;3.23;;
71456;SDS011;59263;48.160;11.752;2023-09-08T03:04:50;8.27;;;3.22;;
71456;SDS011;59263;48.160;11.752;2023-09-08T03:07:15;10.70;;;3.10;;
71456;SDS011;59263;48.160;11.752;2023-09-08T03:09:40;8.27;;;2.97;;
71456;SDS011;59263;48.160;11.752;2023-09-08T03:12:06;9.70;;;3.50;;
71456;SDS011;59263;48.160;11.752;2023-09-08T03:14:31;10.27;;;3.40;;
71456;SDS011;59263;48.160;11.752;2023-09-08T03:16:57;8.02;;;3.00;;
71456;SDS011;59263;48.160;11.752;2023-09-08T03:19:22;9.07;;;3.60;;
71456;SDS011;59263;48.160;11.752;2023-09-08T03:21:47;9.10;;;3.37;;
71456;SDS011;59263;48.160;11.752;2023-09-08T03:24:13;8.13;;;3.03;;
71456;SDS011;59263;48.160;11.752;2023-09-08T03:26:38;8.50;;;3.30;;
71456;SDS011;59263;48.160;11.752;2023-09-08T03:29:05;8.10;;;3.30;;
71456;SDS011;59263;48.160;11.752;2023-09-08T03:31:31;8.88;;;2.97;;
71456;SDS011;59263;48.160;11.752;2023-09-08T03:33:56;8.23;;;3.03;;
71456;SDS011;59263;48.160;11.752;2023-09-08T03:36:21;7.60;;;2.83;;
71456;SDS011;59263;48.160;11.752;2023-09-08T03:38:47;9.53;;;3.37;;
71456;SDS011;59263;48.160;11.752;2023-09-08T03:41:12;9.10;;;3.40;;
71456;SDS011;59263;48.160;11.752;2023-09-08T03:43:37;8.97;;;3.30;;
71456;SDS011;59263;48.160;11.752;2023-09-08T03:46:03;11.33;;;3.53;;
71456;SDS011;59263;48.160;11.752;2023-09-08T03:48:28;9.83;;;3.47;;
71456;SDS011;59263;48.160;11.752;2023-09-08T03:50:53;7.90;;;3.20;;
71456;SDS011;59263;48.160;11.752;2023-09-08T03:53:18;9.77;;;3.47;;
71456;SDS011;59263;48.160;11.752;2023-09-08T03:55:44;8.73;;;3.40;;
71456;SDS011;59263;48.160;11.752;2023-09-08T03:58:09;8.80;;;3.40;;
71456;SDS011;59263;48.160;11.752;2023-09-08T04:00:35;8.23;;;3.07;;
71456;SDS011;59263;48.160;11.752;2023-09-08T04:03:00;9.47;;;3.80;;
71456;SDS011;59263;48.160;11.752;2023-09-08T04:05:25;9.00;;;3.50;;
71456;SDS011;59263;48.160;11.752;2023-09-08T04:07:51;9.00;;;3.40;;
71456;SDS011;59263;48.160;11.752;2023-09-08T04:10:16;12.47;;;3.90;;
71456;SDS011;59263;48.160;11.752;2023-09-08T04:12:41;9.13;;;3.43;;
71456;SDS011;59263;48.160;11.752;2023-09-08T04:15:07;7.73;;;2.63;;
71456;SDS011;59263;48.160;11.752;2023-09-08T04:17:34;8.13;;;3.20;;
71456;SDS011;59263;48.160;11.752;2023-09-08T04:20:01;8.15;;;2.97;;
71456;SDS011;59263;48.160;11.752;2023-09-08T04:22:30;10.87;;;3.60;;
71456;SDS011;59263;48.160;11.752;2023-09-08T04:24:55;8.80;;;3.15;;
71456;SDS011;59263;48.160;11.752;2023-09-08T04:27:22;9.55;;;3.05;;
71456;SDS011;59263;48.160;11.752;2023-09-08T04:29:47;10.13;;;3.60;;
71456;SDS011;59263;48.160;11.752;2023-09-08T04:32:13;9.00;;;3.30;;
71456;SDS011;59263;48.160;11.752;2023-09-08T04:34:39;8.60;;;3.30;;
71456;SDS011;59263;48.160;11.752;2023-09-08T04:37:05;9.90;;;3.47;;
71456;SDS011;59263;48.160;11.752;2023-09-08T04:39:31;10.52;;;4.18;;
71456;SDS011;59263;48.160;11.752;2023-09-08T04:41:56;8.25;;;3.08;;
71456;SDS011;59263;48.160;11.752;2023-09-08T04:44:22;8.02;;;3.13;;
71456;SDS011;59263;48.160;11.752;2023-09-08T04:46:47;8.80;;;2.70;;
71456;SDS011;59263;48.160;11.752;2023-09-08T04:49:13;9.40;;;3.43;;
71456;SDS011;59263;48.160;11.752;2023-09-08T04:51:38;7.97;;;2.73;;
71456;SDS011;59263;48.160;11.752;2023-09-08T04:54:03;8.73;;;3.27;;
71456;SDS011;59263;48.160;11.752;2023-09-08T04:56:29;10.80;;;3.90;;
71456;SDS011;59263;48.160;11.752;2023-09-08T04:58:54;8.10;;;2.78;;
71456;SDS011;59263;48.160;11.752;2023-09-08T05:01:20;11.90;;;3.33;;
71456;SDS011;59263;48.160;11.752;2023-09-08T05:03:45;9.13;;;3.13;;
71456;SDS011;59263;48.160;11.752;2023-09-08T05:06:10;8.77;;;3.50;;
71456;SDS011;59263;48.160;11.752;2023-09-08T05:08:36;8.95;;;3.50;;
71456;SDS011;59263;48.160;11.752;2023-09-08T05:11:01;8.33;;;2.87;;
71456;SDS011;59263;48.160;11.752;2023-09-08T05:13:26;8.53;;;3.00;;
71456;SDS011;59263;48.160;11.752;2023-09-08T05:15:52;8.50;;;3.27;;
71456;SDS011;59263;48.160;11.752;2023-09-08T05:18:24;8.93;;;3.20;;
71456;SDS011;59263;48.160;11.752;2023-09-08T05:20:50;9.25;;;3.33;;
71456;SDS011;59263;48.160;11.752;2023-09-08T05:23:16;8.40;;;3.23;;
71456;SDS011;59263;48.160;11.752;2023-09-08T05:25:41;8.17;;;3.20;;
71456;SDS011;59263;48.160;11.752;2023-09-08T05:28:07;8.52;;;3.28;;
71456;SDS011;59263;48.160;11.752;2023-09-08T05:30:32;8.97;;;3.13;;
71456;SDS011;59263;48.160;11.752;2023-09-08T05:32:58;11.50;;;3.30;;
71456;SDS011;59263;48.160;11.752;2023-09-08T05:35:24;9.20;;;3.20;;
71456;SDS011;59263;48.160;11.752;2023-09-08T05:37:49;10.65;;;3.28;;
71456;SDS011;59263;48.160;11.752;2023-09-08T05:40:14;10.13;;;3.50;;
71456;SDS011;59263;48.160;11.752;2023-09-08T05:42:39;8.48;;;3.15;;
71456;SDS011;59263;48.160;11.752;2023-09-08T05:45:05;8.30;;;3.10;;
71456;SDS011;59263;48.160;11.752;2023-09-08T05:47:31;9.60;;;3.57;;
71456;SDS011;59263;48.160;11.752;2023-09-08T05:49:56;8.13;;;3.27;;
71456;SDS011;59263;48.160;11.752;2023-09-08T05:52:21;10.27;;;3.83;;
71456;SDS011;59263;48.160;11.752;2023-09-08T05:54:46;9.07;;;3.38;;
71456;SDS011;59263;48.160;11.752;2023-09-08T05:57:12;9.57;;;3.40;;
71456;SDS011;59263;48.160;11.752;2023-09-08T05:59:37;8.67;;;3.93;;
71456;SDS011;59263;48.160;11.752;2023-09-08T06:02:02;9.17;;;3.50;;
71456;SDS011;59263;48.160;11.752;2023-09-08T06:04:28;8.23;;;3.10;;
71456;SDS011;59263;48.160;11.752;2023-09-08T06:06:53;10.13;;;3.43;;
71456;SDS011;59263;48.160;11.752;2023-09-08T06:09:19;9.73;;;3.57;;
71456;SDS011;59263;48.160;11.752;2023-09-08T06:11:44;7.80;;;2.63;;
71456;SDS011;59263;48.160;11.752;2023-09-08T06:14:09;11.23;;;3.70;;
71456;SDS011;59263;48.160;11.752;2023-09-08T06:16:34;9.57;;;3.23;;
71456;SDS011;59263;48.160;11.752;2023-09-08T06:19:00;8.03;;;3.33;;
71456;SDS011;59263;48.160;11.752;2023-09-08T06:21:28;9.30;;;3.65;;
71456;SDS011;59263;48.160;11.752;2023-09-08T06:23:53;11.57;;;4.00;;
71456;SDS011;59263;48.160;11.752;2023-09-08T06:26:18;9.10;;;3.27;;
71456;SDS011;59263;48.160;11.752;2023-09-08T06:28:44;9.73;;;3.50;;
71456;SDS011;59263;48.160;11.752;2023-09-08T06:31:10;10.10;;;3.50;;
71456;SDS011;59263;48.160;11.752;2023-09-08T06:33:35;8.57;;;3.20;;
71456;SDS011;59263;48.160;11.752;2023-09-08T06:36:00;10.52;;;3.33;;
71456;SDS011;59263;48.160;11.752;2023-09-08T06:38:26;9.18;;;3.75;;
71456;SDS011;59263;48.160;11.752;2023-09-08T06:40:51;11.67;;;3.80;;
71456;SDS011;59263;48.160;11.752;2023-09-08T06:43:19;8.70;;;3.28;;
71456;SDS011;59263;48.160;11.752;2023-09-08T06:45:47;9.80;;;3.73;;
71456;SDS011;59263;48.160;11.752;2023-09-08T06:48:14;10.88;;;4.18;;
71456;SDS011;59263;48.160;11.752;2023-09-08T06:50:39;9.00;;;3.60;;
71456;SDS011;59263;48.160;11.752;2023-09-08T06:53:04;9.37;;;3.73;;
71456;SDS011;59263;48.160;11.752;2023-09-08T06:55:30;9.43;;;3.77;;
71456;SDS011;59263;48.160;11.752;2023-09-08T06:57:55;8.77;;;3.57;;
71456;SDS011;59263;48.160;11.752;2023-09-08T07:00:21;10.38;;;3.80;;
71456;SDS011;59263;48.160;11.752;2023-09-08T07:02:46;10.53;;;4.03;;
71456;SDS011;59263;48.160;11.752;2023-09-08T07:05:14;9.48;;;3.92;;
71456;SDS011;59263;48.160;11.752;2023-09-08T07:07:40;11.68;;;4.22;;
71456;SDS011;59263;48.160;11.752;2023-09-08T07:10:05;9.83;;;4.17;;
71456;SDS011;59263;48.160;11.752;2023-09-08T07:12:31;11.35;;;4.53;;
71456;SDS011;59263;48.160;11.752;2023-09-08T07:14:57;9.37;;;3.93;;
71456;SDS011;59263;48.160;11.752;2023-09-08T07:17:23;11.50;;;4.10;;
71456;SDS011;59263;48.160;11.752;2023-09-08T07:19:51;8.83;;;3.37;;
71456;SDS011;59263;48.160;11.752;2023-09-08T07:22:17;13.48;;;4.03;;
71456;SDS011;59263;48.160;11.752;2023-09-08T07:24:42;10.00;;;3.97;;
71456;SDS011;59263;48.160;11.752;2023-09-08T07:27:07;9.43;;;4.23;;
71456;SDS011;59263;48.160;11.752;2023-09-08T07:29:33;9.67;;;4.23;;
71456;SDS011;59263;48.160;11.752;2023-09-08T07:31:59;12.17;;;4.33;;
71456;SDS011;59263;48.160;11.752;2023-09-08T07:34:24;9.80;;;4.40;;
71456;SDS011;59263;48.160;11.752;2023-09-08T07:36:50;11.83;;;4.60;;
71456;SDS011;59263;48.160;11.752;2023-09-08T07:39:15;12.53;;;4.63;;
71456;SDS011;59263;48.160;11.752;2023-09-08T07:41:40;9.93;;;4.22;;
71456;SDS011;59263;48.160;11.752;2023-09-08T07:44:06;10.50;;;4.23;;
71456;SDS011;59263;48.160;11.752;2023-09-08T07:46:32;9.47;;;4.27;;
71456;SDS011;59263;48.160;11.752;2023-09-08T07:48:58;9.48;;;4.20;;
71456;SDS011;59263;48.160;11.752;2023-09-08T07:51:24;10.38;;;4.05;;
71456;SDS011;59263;48.160;11.752;2023-09-08T07:53:50;9.87;;;4.63;;
71456;SDS011;59263;48.160;11.752;2023-09-08T07:56:15;10.27;;;4.22;;
71456;SDS011;59263;48.160;11.752;2023-09-08T07:58:41;9.77;;;4.63;;
71456;SDS011;59263;48.160;11.752;2023-09-08T08:01:06;10.37;;;4.13;;
71456;SDS011;59263;48.160;11.752;2023-09-08T08:03:31;9.23;;;3.90;;
71456;SDS011;59263;48.160;11.752;2023-09-08T08:05:57;9.70;;;4.27;;
71456;SDS011;59263;48.160;11.752;2023-09-08T08:08:25;9.68;;;4.47;;
71456;SDS011;59263;48.160;11.752;2023-09-08T08:10:50;10.60;;;4.63;;
71456;SDS011;59263;48.160;11.752;2023-09-08T08:13:16;9.70;;;4.00;;
71456;SDS011;59263;48.160;11.752;2023-09-08T08:15:41;9.20;;;3.95;;
71456;SDS011;59263;48.160;11.752;2023-09-08T08:18:08;10.73;;;4.40;;
71456;SDS011;59263;48.160;11.752;2023-09-08T08:20:37;9.93;;;4.47;;
71456;SDS011;59263;48.160;11.752;2023-09-08T08:23:03;9.48;;;4.10;;
71456;SDS011;59263;48.160;11.752;2023-09-08T08:25:29;9.10;;;4.20;;
71456;SDS011;59263;48.160;11.752;2023-09-08T08:27:54;9.77;;;4.23;;
71456;SDS011;59263;48.160;11.752;2023-09-08T08:30:21;9.75;;;4.38;;
71456;SDS011;59263;48.160;11.752;2023-09-08T08:32:47;9.90;;;4.23;;
71456;SDS011;59263;48.160;11.752;2023-09-08T08:35:12;9.90;;;4.07;;
71456;SDS011;59263;48.160;11.752;2023-09-08T08:37:39;7.80;;;3.30;;
71456;SDS011;59263;48.160;11.752;2023-09-08T08:40:05;8.98;;;4.22;;
71456;SDS011;59263;48.160;11.752;2023-09-08T08:42:32;10.50;;;4.15;;
71456;SDS011;59263;48.160;11.752;2023-09-08T08:44:58;10.27;;;4.57;;
71456;SDS011;59263;48.160;11.752;2023-09-08T08:47:24;8.02;;;3.80;;
71456;SDS011;59263;48.160;11.752;2023-09-08T08:49:52;9.65;;;3.92;;
71456;SDS011;59263;48.160;11.752;2023-09-08T08:52:18;11.13;;;3.95;;
71456;SDS011;59263;48.160;11.752;2023-09-08T08:54:45;10.18;;;4.18;;
71456;SDS011;59263;48.160;11.752;2023-09-08T08:57:13;10.80;;;3.67;;
71456;SDS011;59263;48.160;11.752;2023-09-08T08:59:39;9.18;;;3.58;;
71456;SDS011;59263;48.160;11.752;2023-09-08T09:02:06;8.90;;;3.73;;
71456;SDS011;59263;48.160;11.752;2023-09-08T09:04:33;9.63;;;4.05;;
71456;SDS011;59263;48.160;11.752;2023-09-08T09:07:01;9.27;;;4.47;;
71456;SDS011;59263;48.160;11.752;2023-09-08T09:09:29;9.32;;;3.92;;
71456;SDS011;59263;48.160;11.752;2023-09-08T09:11:54;10.30;;;4.43;;
71456;SDS011;59263;48.160;11.752;2023-09-08T09:14:19;10.23;;;3.93;;
71456;SDS011;59263;48.160;11.752;2023-09-08T09:16:45;9.60;;;4.60;;
71456;SDS011;59263;48.160;11.752;2023-09-08T09:19:20;8.93;;;4.38;;
71456;SDS011;59263;48.160;11.752;2023-09-08T09:21:50;8.15;;;3.60;;
71456;SDS011;59263;48.160;11.752;2023-09-08T09:24:31;9.35;;;4.05;;
71456;SDS011;59263;48.160;11.752;2023-09-08T09:26:57;8.93;;;4.55;;
71456;SDS011;59263;48.160;11.752;2023-09-08T09:29:23;11.73;;;4.18;;
71456;SDS011;59263;48.160;11.752;2023-09-08T09:31:52;9.20;;;4.13;;
71456;SDS011;59263;48.160;11.752;2023-09-08T09:34:19;9.10;;;4.10;;
71456;SDS011;59263;48.160;11.752;2023-09-08T09:36:47;9.20;;;3.92;;
71456;SDS011;59263;48.160;11.752;2023-09-08T09:39:21;8.82;;;4.00;;
71456;SDS011;59263;48.160;11.752;2023-09-08T09:41:48;9.77;;;4.13;;
71456;SDS011;59263;48.160;11.752;2023-09-08T09:44:18;8.98;;;3.95;;
71456;SDS011;59263;48.160;11.752;2023-09-08T09:46:44;9.35;;;4.28;;
71456;SDS011;59263;48.160;11.752;2023-09-08T09:49:11;9.32;;;4.10;;
71456;SDS011;59263;48.160;11.752;2023-09-08T09:51:45;8.73;;;4.25;;
71456;SDS011;59263;48.160;11.752;2023-09-08T09:54:17;10.23;;;4.53;;
71456;SDS011;59263;48.160;11.752;2023-09-08T09:56:43;9.38;;;4.00;;
71456;SDS011;59263;48.160;11.752;2023-09-08T09:59:09;9.35;;;3.83;;
71456;SDS011;59263;48.160;11.752;2023-09-08T10:01:37;8.77;;;4.05;;
71456;SDS011;59263;48.160;11.752;2023-09-08T10:04:04;9.15;;;4.05;;
71456;SDS011;59263;48.160;11.752;2023-09-08T10:06:33;10.45;;;4.50;;
71456;SDS011;59263;48.160;11.752;2023-09-08T10:09:00;9.15;;;4.45;;
71456;SDS011;59263;48.160;11.752;2023-09-08T10:11:29;10.00;;;4.03;;
71456;SDS011;59263;48.160;11.752;2023-09-08T10:13:59;9.43;;;4.22;;
71456;SDS011;59263;48.160;11.752;2023-09-08T10:16:26;9.02;;;4.32;;
71456;SDS011;59263;48.160;11.752;2023-09-08T10:18:57;8.05;;;3.65;;
71456;SDS011;59263;48.160;11.752;2023-09-08T10:21:24;8.63;;;4.43;;
71456;SDS011;59263;48.160;11.752;2023-09-08T10:23:59;8.82;;;4.05;;
71456;SDS011;59263;48.160;11.752;2023-09-08T10:26:33;8.55;;;3.65;;
71456;SDS011;59263;48.160;11.752;2023-09-08T10:29:01;8.52;;;4.07;;
71456;SDS011;59263;48.160;11.752;2023-09-08T10:31:27;8.68;;;3.97;;
71456;SDS011;59263;48.160;11.752;2023-09-08T10:33:55;8.65;;;4.15;;
71456;SDS011;59263;48.160;11.752;2023-09-08T10:36:22;8.77;;;4.18;;
71456;SDS011;59263;48.160;11.752;2023-09-08T10:38:49;8.52;;;3.70;;
71456;SDS011;59263;48.160;11.752;2023-09-08T10:43:57;8.35;;;4.10;;
71456;SDS011;59263;48.160;11.752;2023-09-08T10:46:28;8.45;;;3.63;;
71456;SDS011;59263;48.160;11.752;2023-09-08T10:48:54;10.00;;;4.10;;
71456;SDS011;59263;48.160;11.752;2023-09-08T10:51:26;10.45;;;4.30;;
71456;SDS011;59263;48.160;11.752;2023-09-08T10:53:51;8.47;;;3.50;;
71456;SDS011;59263;48.160;11.752;2023-09-08T10:56:16;10.93;;;4.60;;
71456;SDS011;59263;48.160;11.752;2023-09-08T10:58:43;8.63;;;3.85;;
71456;SDS011;59263;48.160;11.752;2023-09-08T11:01:17;9.15;;;4.25;;
71456;SDS011;59263;48.160;11.752;2023-09-08T11:03:44;8.60;;;3.85;;
71456;SDS011;59263;48.160;11.752;2023-09-08T11:06:17;10.95;;;4.00;;
71456;SDS011;59263;48.160;11.752;2023-09-08T11:08:44;8.10;;;4.10;;
71456;SDS011;59263;48.160;11.752;2023-09-08T11:11:11;8.82;;;4.07;;
71456;SDS011;59263;48.160;11.752;2023-09-08T11:13:37;8.25;;;3.80;;
71456;SDS011;59263;48.160;11.752;2023-09-08T11:16:04;9.70;;;4.28;;
71456;SDS011;59263;48.160;11.752;2023-09-08T11:18:30;10.93;;;4.30;;
71456;SDS011;59263;48.160;11.752;2023-09-08T11:20:56;9.93;;;4.05;;
71456;SDS011;59263;48.160;11.752;2023-09-08T11:23:23;8.27;;;4.07;;
71456;SDS011;59263;48.160;11.752;2023-09-08T11:25:49;8.80;;;3.93;;
71456;SDS011;59263;48.160;11.752;2023-09-08T11:28:16;8.48;;;3.97;;
71456;SDS011;59263;48.160;11.752;2023-09-08T11:30:42;11.52;;;4.10;;
71456;SDS011;59263;48.160;11.752;2023-09-08T11:33:14;8.93;;;4.33;;
71456;SDS011;59263;48.160;11.752;2023-09-08T11:35:40;8.85;;;3.80;;
71456;SDS011;59263;48.160;11.752;2023-09-08T11:38:05;8.50;;;3.87;;
71456;SDS011;59263;48.160;11.752;2023-09-08T11:40:30;8.65;;;3.72;;
71456;SDS011;59263;48.160;11.752;2023-09-08T11:42:57;7.72;;;3.65;;
71456;SDS011;59263;48.160;11.752;2023-09-08T11:45:23;10.07;;;4.00;;
71456;SDS011;59263;48.160;11.752;2023-09-08T11:47:48;9.73;;;4.00;;
71456;SDS011;59263;48.160;11.752;2023-09-08T11:50:14;8.90;;;3.72;;
71456;SDS011;59263;48.160;11.752;2023-09-08T11:52:41;8.80;;;3.87;;
71456;SDS011;59263;48.160;11.752;2023-09-08T11:55:08;9.75;;;4.18;;
71456;SDS011;59263;48.160;11.752;2023-09-08T11:57:34;8.35;;;3.53;;
71456;SDS011;59263;48.160;11.752;2023-09-08T11:59:59;8.37;;;3.50;;
71456;SDS011;59263;48.160;11.752;2023-09-08T12:02:33;8.63;;;4.07;;
71456;SDS011;59263;48.160;11.752;2023-09-08T12:04:59;8.95;;;3.65;;
71456;SDS011;59263;48.160;11.752;2023-09-08T12:07:24;8.23;;;3.60;;
71456;SDS011;59263;48.160;11.752;2023-09-08T12:09:49;9.27;;;4.23;;
71456;SDS011;59263;48.160;11.752;2023-09-08T12:12:15;8.60;;;3.97;;
71456;SDS011;59263;48.160;11.752;2023-09-08T12:14:41;8.00;;;3.60;;
71456;SDS011;59263;48.160;11.752;2023-09-08T12:17:07;9.20;;;3.85;;
71456;SDS011;59263;48.160;11.752;2023-09-08T12:19:32;8.90;;;3.87;;
71456;SDS011;59263;48.160;11.752;2023-09-08T12:22:01;8.23;;;3.77;;
71456;SDS011;59263;48.160;11.752;2023-09-08T12:27:17;9.38;;;3.97;;
71456;SDS011;59263;48.160;11.752;2023-09-08T12:29:56;9.38;;;4.30;;
71456;SDS011;59263;48.160;11.752;2023-09-08T12:32:29;9.10;;;4.00;;
71456;SDS011;59263;48.160;11.752;2023-09-08T12:34:57;9.20;;;4.50;;
71456;SDS011;59263;48.160;11.752;2023-09-08T12:37:23;8.68;;;3.80;;
71456;SDS011;59263;48.160;11.752;2023-09-08T12:39:54;8.98;;;4.18;;
71456;SDS011;59263;48.160;11.752;2023-09-08T12:42:19;9.07;;;4.13;;
71456;SDS011;59263;48.160;11.752;2023-09-08T12:44:45;9.85;;;4.10;;
71456;SDS011;59263;48.160;11.752;2023-09-08T12:47:11;8.68;;;3.95;;
71456;SDS011;59263;48.160;11.752;2023-09-08T12:49:39;8.57;;;3.90;;
71456;SDS011;59263;48.160;11.752;2023-09-08T12:52:05;8.35;;;3.83;;
71456;SDS011;59263;48.160;11.752;2023-09-08T12:54:30;9.43;;;4.20;;
71456;SDS011;59263;48.160;11.752;2023-09-08T12:56:56;8.20;;;3.63;;
71456;SDS011;59263;48.160;11.752;2023-09-08T12:59:21;8.37;;;3.53;;
71456;SDS011;59263;48.160;11.752;2023-09-08T13:01:46;9.02;;;4.00;;
71456;SDS011;59263;48.160;11.752;2023-09-08T13:04:12;8.63;;;3.97;;
71456;SDS011;59263;48.160;11.752;2023-09-08T13:06:37;9.10;;;4.23;;
71456;SDS011;59263;48.160;11.752;2023-09-08T13:09:02;10.37;;;4.70;;
71456;SDS011;59263;48.160;11.752;2023-09-08T13:11:27;10.33;;;4.27;;
71456;SDS011;59263;48.160;11.752;2023-09-08T13:13:53;8.97;;;4.10;;
71456;SDS011;59263;48.160;11.752;2023-09-08T13:16:19;9.32;;;4.18;;
71456;SDS011;59263;48.160;11.752;2023-09-08T13:18:44;8.03;;;3.83;;
71456;SDS011;59263;48.160;11.752;2023-09-08T13:21:10;8.18;;;3.92;;
71456;SDS011;59263;48.160;11.752;2023-09-08T13:23:36;8.40;;;3.55;;
71456;SDS011;59263;48.160;11.752;2023-09-08T13:26:01;8.27;;;3.83;;
71456;SDS011;59263;48.160;11.752;2023-09-08T13:28:26;7.55;;;3.42;;
71456;SDS011;59263;48.160;11.752;2023-09-08T13:30:52;8.95;;;4.07;;
71456;SDS011;59263;48.160;11.752;2023-09-08T13:33:17;8.90;;;3.10;;
71456;SDS011;59263;48.160;11.752;2023-09-08T13:35:42;7.70;;;3.43;;
71456;SDS011;59263;48.160;11.752;2023-09-08T13:38:08;8.13;;;3.47;;
71456;SDS011;59263;48.160;11.752;2023-09-08T13:40:33;9.00;;;3.63;;
71456;SDS011;59263;48.160;11.752;2023-09-08T13:42:58;8.27;;;3.67;;
71456;SDS011;59263;48.160;11.752;2023-09-08T13:45:23;9.10;;;3.63;;
71456;SDS011;59263;48.160;11.752;2023-09-08T13:47:49;9.20;;;3.80;;
71456;SDS011;59263;48.160;11.752;2023-09-08T13:50:14;8.93;;;4.10;;
71456;SDS011;59263;48.160;11.752;2023-09-08T13:52:39;8.63;;;3.90;;
71456;SDS011;59263;48.160;11.752;2023-09-08T13:55:05;8.60;;;3.67;;
71456;SDS011;59263;48.160;11.752;2023-09-08T13:57:32;7.63;;;3.55;;
71456;SDS011;59263;48.160;11.752;2023-09-08T13:59:57;8.18;;;3.60;;
71456;SDS011;59263;48.160;11.752;2023-09-08T14:02:22;10.13;;;3.87;;
71456;SDS011;59263;48.160;11.752;2023-09-08T14:04:48;8.00;;;3.50;;
71456;SDS011;59263;48.160;11.752;2023-09-08T14:07:13;8.50;;;3.57;;
71456;SDS011;59263;48.160;11.752;2023-09-08T14:09:39;7.93;;;3.72;;
71456;SDS011;59263;48.160;11.752;2023-09-08T14:12:04;7.82;;;3.58;;
71456;SDS011;59263;48.160;11.752;2023-09-08T14:14:30;8.60;;;3.87;;
71456;SDS011;59263;48.160;11.752;2023-09-08T14:16:55;7.90;;;3.53;;
71456;SDS011;59263;48.160;11.752;2023-09-08T14:19:21;8.87;;;3.87;;
71456;SDS011;59263;48.160;11.752;2023-09-08T14:21:46;8.00;;;3.50;;
71456;SDS011;59263;48.160;11.752;2023-09-08T14:24:11;9.87;;;3.83;;
71456;SDS011;59263;48.160;11.752;2023-09-08T14:26:36;8.77;;;3.60;;
71456;SDS011;59263;48.160;11.752;2023-09-08T14:29:02;7.93;;;3.83;;
71456;SDS011;59263;48.160;11.752;2023-09-08T14:31:28;8.40;;;3.80;;
71456;SDS011;59263;48.160;11.752;2023-09-08T14:33:54;8.80;;;3.90;;
71456;SDS011;59263;48.160;11.752;2023-09-08T14:36:20;8.63;;;4.10;;